Time;durP1;ratioP1;P1;durP2;ratioP2;P2;SDS_P1;SDS_P2;PMS_P1;PMS_P2;Temp;Humidity;BMP_temperature;BMP_pressure;BME280_temperature;BME280_humidity;BME280_pressure;Samples;Min_cycle;Max_cycle;Signal;HPM_P1;HPM_P2
2022/09/04 00:00:13;;;;;;;3.50;0.85;;;;;;;15.83;83.95;101828.50;5013049;28;20632;-51
2022/09/04 00:03:09;;;;;;;2.22;0.90;;;;;;;15.75;84.24;101825.25;5017368;28;20595;-51
2022/09/04 00:05:49;;;;;;;1.13;0.75;;;;;;;15.79;84.18;101832.28;5018464;28;20215;-49
2022/09/04 00:08:24;;;;;;;2.20;0.73;;;;;;;15.79;84.38;101834.09;5026097;28;20246;-48
2022/09/04 00:11:21;;;;;;;3.05;0.80;;;;;;;15.78;84.18;101827.78;5026576;28;20395;-49
2022/09/04 00:13:56;;;;;;;4.15;0.90;;;;;;;15.79;84.06;101826.88;5021021;28;20183;-48
2022/09/04 00:16:26;;;;;;;3.17;0.98;;;;;;;15.84;83.88;101832.06;5004487;28;20234;-47
2022/09/04 00:19:08;;;;;;;4.07;1.02;;;;;;;15.66;84.00;101822.91;5016086;28;20532;-47
2022/09/04 00:21:49;;;;;;;2.60;0.98;;;;;;;15.70;84.40;101813.75;5019539;28;20203;-52
2022/09/04 00:24:18;;;;;;;1.88;0.80;;;;;;;15.66;84.09;101817.50;5024069;28;20183;-46
2022/09/04 00:26:49;;;;;;;3.28;0.70;;;;;;;15.67;84.05;101824.66;5011924;28;20343;-50
2022/09/04 00:29:35;;;;;;;2.35;1.20;;;;;;;15.64;84.28;101820.28;5027980;28;20188;-51
2022/09/04 00:32:03;;;;;;;1.63;0.70;;;;;;;15.69;84.03;101821.91;5026069;28;20227;-48
2022/09/04 00:34:44;;;;;;;1.85;1.05;;;;;;;15.64;83.64;101831.09;5015112;28;20242;-51
2022/09/04 00:37:15;;;;;;;1.63;0.90;;;;;;;15.57;84.03;101821.50;5018501;28;20302;-48
2022/09/04 00:39:58;;;;;;;1.92;0.90;;;;;;;15.61;84.06;101814.13;5029919;28;20184;-50
2022/09/04 00:42:42;;;;;;;2.15;1.23;;;;;;;15.51;84.20;101812.78;5014064;28;20625;-47
2022/09/04 00:45:29;;;;;;;3.83;1.08;;;;;;;15.47;84.33;101820.13;5016458;28;20658;-49
2022/09/04 00:48:21;;;;;;;4.25;1.00;;;;;;;15.39;84.54;101817.78;5021641;28;20271;-48
2022/09/04 00:51:04;;;;;;;3.85;0.90;;;;;;;15.39;84.60;101815.06;5028049;28;20180;-47
2022/09/04 00:53:36;;;;;;;3.72;1.40;;;;;;;15.35;84.42;101816.13;5025343;28;20193;-48
2022/09/04 00:56:01;;;;;;;2.60;0.95;;;;;;;15.29;84.64;101819.09;5021144;28;20606;-52
2022/09/04 00:58:46;;;;;;;2.40;0.85;;;;;;;15.28;84.90;101819.16;5013765;28;20291;-47
2022/09/04 01:01:20;;;;;;;1.75;1.00;;;;;;;15.21;85.25;101821.22;5016823;28;20558;-50
2022/09/04 01:03:58;;;;;;;2.25;0.88;;;;;;;15.27;85.23;101820.97;5032055;28;20195;-48
2022/09/04 01:06:42;;;;;;;1.95;0.93;;;;;;;15.13;85.09;101817.97;5020956;28;20287;-47
2022/09/04 01:09:36;;;;;;;1.55;0.80;;;;;;;15.18;85.41;101824.06;5020489;28;20185;-49
2022/09/04 01:12:14;;;;;;;4.07;1.58;;;;;;;15.01;85.65;101822.06;5016339;28;20367;-48
2022/09/04 01:15:15;;;;;;;1.98;0.90;;;;;;;14.88;86.32;101820.78;5028820;28;20670;-49
2022/09/04 01:18:02;;;;;;;1.38;0.73;;;;;;;14.94;86.44;101820.56;5024288;28;20249;-50
2022/09/04 01:20:59;;;;;;;1.98;1.00;;;;;;;14.94;86.03;101821.44;5026553;28;20957;-47
2022/09/04 01:23:52;;;;;;;1.67;0.77;;;;;;;14.88;85.63;101818.09;5020404;28;20267;-51
2022/09/04 01:26:36;;;;;;;2.53;1.00;;;;;;;14.92;85.90;101814.34;5025615;28;20208;-49
2022/09/04 01:29:23;;;;;;;2.70;0.90;;;;;;;15.00;85.09;101813.09;5032809;28;20175;-48
2022/09/04 01:32:06;;;;;;;2.78;0.93;;;;;;;15.03;84.89;101815.66;5024382;28;20188;-52
2022/09/04 01:34:34;;;;;;;2.80;0.88;;;;;;;15.02;84.69;101811.22;5017051;28;20536;-49
2022/09/04 01:37:20;;;;;;;2.80;1.08;;;;;;;15.13;84.08;101812.56;5013034;28;20714;-48
2022/09/04 01:39:54;;;;;;;2.47;0.77;;;;;;;15.06;83.87;101811.06;5020237;28;20192;-49
2022/09/04 01:42:40;;;;;;;1.35;0.70;;;;;;;15.19;83.36;101812.31;5024650;28;20290;-51
2022/09/04 01:45:06;;;;;;;4.35;1.25;;;;;;;15.21;82.82;101807.72;5016024;28;20227;-49
2022/09/04 01:47:48;;;;;;;4.72;0.80;;;;;;;15.23;82.67;101806.72;5017990;28;20185;-51
2022/09/04 01:50:21;;;;;;;1.17;0.90;;;;;;;15.13;82.71;101815.25;5017828;28;20274;-51
2022/09/04 01:53:01;;;;;;;2.00;0.65;;;;;;;15.08;83.09;101819.97;5020195;28;20184;-50
2022/09/04 01:55:56;;;;;;;0.90;0.70;;;;;;;15.15;83.09;101816.97;5018925;28;20230;-51
2022/09/04 01:58:51;;;;;;;2.03;0.90;;;;;;;15.12;82.77;101818.91;5013813;28;20213;-46
2022/09/04 02:01:49;;;;;;;3.65;0.85;;;;;;;15.01;82.93;101813.97;5018227;28;20629;-48
2022/09/04 02:04:24;;;;;;;3.22;0.90;;;;;;;15.08;82.77;101825.38;5013679;28;20188;-47
2022/09/04 02:07:45;;;;;;;2.58;0.63;;;;;;;15.14;82.47;101817.03;5026928;28;20227;-51
2022/09/04 02:10:25;;;;;;;3.58;0.90;;;;;;;15.27;81.91;101814.72;4982405;28;20279;-51
2022/09/04 02:13:08;;;;;;;3.40;0.82;;;;;;;15.17;82.04;101814.19;5027439;28;20204;-50
2022/09/04 02:15:48;;;;;;;2.25;0.82;;;;;;;15.13;81.94;101817.97;5023316;28;20773;-48
2022/09/04 02:18:43;;;;;;;4.95;0.95;;;;;;;15.12;81.88;101829.72;5015281;28;20255;-47
2022/09/04 02:21:27;;;;;;;5.63;0.90;;;;;;;15.15;81.75;101833.19;5017225;28;20597;-49
2022/09/04 02:24:07;;;;;;;1.13;0.95;;;;;;;15.17;81.74;101825.84;5029961;28;20194;-49
2022/09/04 02:26:41;;;;;;;2.83;0.90;;;;;;;15.29;81.36;101829.88;5025246;28;20287;-52
2022/09/04 02:29:32;;;;;;;1.65;0.93;;;;;;;15.18;81.58;101829.47;5020457;28;20187;-53
2022/09/04 02:32:17;;;;;;;1.50;0.70;;;;;;;15.11;81.42;101828.84;5015191;28;20917;-49
2022/09/04 02:34:48;;;;;;;1.65;0.93;;;;;;;15.10;81.45;101827.06;5024243;28;20605;-53
2022/09/04 02:37:36;;;;;;;2.28;0.70;;;;;;;15.17;81.35;101828.56;5015823;28;20228;-50
2022/09/04 02:40:17;;;;;;;2.15;0.90;;;;;;;15.23;81.01;101828.31;5019293;28;20187;-50
2022/09/04 02:43:09;;;;;;;2.75;1.10;;;;;;;15.26;80.86;101830.00;5017872;28;20208;-48
2022/09/04 02:46:08;;;;;;;3.83;0.93;;;;;;;15.29;80.00;101826.31;5000956;28;20232;-48
2022/09/04 02:48:50;;;;;;;1.27;0.73;;;;;;;15.28;79.99;101838.03;5017086;28;20188;-48
2022/09/04 02:51:55;;;;;;;2.70;0.90;;;;;;;15.15;80.21;101843.06;5024809;28;20180;-51
2022/09/04 02:54:51;;;;;;;1.38;1.00;;;;;;;15.07;80.74;101838.00;4980127;28;20192;-49
2022/09/04 02:57:49;;;;;;;2.75;1.35;;;;;;;14.93;81.37;101843.94;5012881;28;20205;-47
2022/09/04 03:00:20;;;;;;;2.83;1.00;;;;;;;14.94;81.96;101856.50;5014087;28;20197;-51
2022/09/04 03:03:22;;;;;;;1.30;0.90;;;;;;;14.94;82.08;101845.72;5016016;28;20312;-47
2022/09/04 03:06:10;;;;;;;3.40;1.00;;;;;;;14.86;82.52;101849.66;5012074;28;20227;-48
2022/09/04 03:08:43;;;;;;;1.95;0.88;;;;;;;14.71;83.33;101845.75;5017337;28;20220;-51
2022/09/04 03:11:16;;;;;;;2.15;1.00;;;;;;;14.76;83.66;101846.47;5018565;28;20195;-49
2022/09/04 03:14:10;;;;;;;2.40;0.80;;;;;;;14.71;84.02;101854.72;5017462;28;20192;-50
2022/09/04 03:16:45;;;;;;;2.33;0.80;;;;;;;14.75;84.27;101861.75;5017406;28;20212;-48
2022/09/04 03:19:35;;;;;;;1.88;0.90;;;;;;;14.68;83.98;101865.63;5016541;28;20304;-52
2022/09/04 03:22:14;;;;;;;2.70;1.02;;;;;;;14.55;84.73;101859.81;5017015;28;20289;-50
2022/09/04 03:24:48;;;;;;;1.05;0.82;;;;;;;14.53;85.25;101866.19;5010785;28;20191;-51
2022/09/04 03:27:17;;;;;;;2.67;0.80;;;;;;;14.51;85.33;101865.38;5024834;28;20262;-50
2022/09/04 03:29:59;;;;;;;2.58;0.98;;;;;;;14.53;85.14;101874.28;5013576;28;20184;-50
2022/09/04 03:32:50;;;;;;;4.85;0.93;;;;;;;14.54;84.75;101868.84;5013000;28;20832;-50
2022/09/04 03:35:54;;;;;;;1.75;0.88;;;;;;;14.65;84.62;101871.16;5011837;28;20185;-51
2022/09/04 03:38:40;;;;;;;1.10;0.63;;;;;;;14.59;83.93;101871.38;5002560;28;20204;-52
2022/09/04 03:41:29;;;;;;;3.17;1.00;;;;;;;14.54;84.26;101876.91;5012836;28;20227;-50
2022/09/04 03:44:21;;;;;;;1.27;0.80;;;;;;;14.51;84.61;101873.44;5009730;28;20572;-51
2022/09/04 03:47:12;;;;;;;0.80;0.80;;;;;;;14.50;84.23;101885.19;5028005;28;20208;-50
2022/09/04 03:49:57;;;;;;;3.38;0.90;;;;;;;14.47;84.38;101871.81;5011029;28;20176;-51
2022/09/04 03:52:46;;;;;;;3.30;1.17;;;;;;;14.45;84.27;101882.63;5011762;28;20177;-50
2022/09/04 03:55:45;;;;;;;2.83;0.95;;;;;;;14.51;83.91;101892.34;5012105;28;20295;-50
2022/09/04 03:58:11;;;;;;;3.03;1.00;;;;;;;14.51;83.46;101881.53;5028967;28;20230;-50
2022/09/04 04:01:12;;;;;;;2.45;0.90;;;;;;;14.58;83.30;101884.00;5019015;28;20213;-52
2022/09/04 04:04:12;;;;;;;2.85;0.80;;;;;;;14.53;83.19;101895.84;5007426;28;20702;-50
2022/09/04 04:06:49;;;;;;;0.70;0.70;;;;;;;14.57;82.96;101893.00;5016309;28;20303;-48
2022/09/04 04:09:33;;;;;;;0.85;0.70;;;;;;;14.55;82.63;101891.31;5023114;28;20262;-47
2022/09/04 04:12:11;;;;;;;1.55;0.90;;;;;;;14.59;81.96;101898.34;5022111;28;20186;-49
2022/09/04 04:14:56;;;;;;;1.27;0.90;;;;;;;14.63;82.19;101898.19;5010153;28;20279;-52
2022/09/04 04:17:56;;;;;;;5.15;1.10;;;;;;;14.59;81.65;101901.06;5017932;28;20748;-51
2022/09/04 04:20:37;;;;;;;1.73;0.90;;;;;;;14.59;81.59;101903.75;5007665;28;20211;-49
2022/09/04 04:23:21;;;;;;;2.83;0.82;;;;;;;14.49;82.21;101908.56;5017496;28;20291;-50
2022/09/04 04:26:06;;;;;;;3.10;0.80;;;;;;;14.44;82.29;101907.84;5016810;28;20207;-48
2022/09/04 04:28:58;;;;;;;1.00;0.80;;;;;;;14.46;82.21;101914.06;5017062;28;20180;-48
2022/09/04 04:32:10;;;;;;;1.77;0.80;;;;;;;14.45;82.32;101923.09;5016499;28;20194;-50
2022/09/04 04:35:03;;;;;;;5.65;0.98;;;;;;;14.41;82.16;101919.66;5016217;28;20181;-51
2022/09/04 04:38:06;;;;;;;2.70;1.15;;;;;;;14.44;82.45;101915.94;5020327;28;20220;-51
2022/09/04 04:40:56;;;;;;;1.30;1.02;;;;;;;14.38;82.51;101918.88;5012402;28;20176;-50
2022/09/04 04:43:27;;;;;;;2.47;0.95;;;;;;;14.36;82.64;101932.41;5012566;28;20583;-50
2022/09/04 04:46:20;;;;;;;2.15;0.90;;;;;;;14.33;82.80;101912.78;5012805;28;20209;-52
2022/09/04 04:48:52;;;;;;;5.45;1.00;;;;;;;14.39;82.86;101921.50;5014816;28;20212;-51
2022/09/04 04:51:39;;;;;;;2.53;1.00;;;;;;;14.35;82.57;101930.66;5013667;28;20180;-53
2022/09/04 04:54:19;;;;;;;0.85;0.85;;;;;;;14.40;82.66;101931.34;5010523;28;20290;-50
2022/09/04 04:57:20;;;;;;;2.17;1.08;;;;;;;14.33;82.64;101929.81;5013369;28;20212;-48
2022/09/04 04:59:50;;;;;;;2.28;0.73;;;;;;;14.27;82.97;101929.16;5012852;28;20196;-51
2022/09/04 05:02:29;;;;;;;0.90;0.77;;;;;;;14.25;83.07;101940.00;5023853;28;20243;-51
2022/09/04 05:05:12;;;;;;;3.53;1.42;;;;;;;14.28;82.75;101937.22;5028326;28;20246;-48
2022/09/04 05:07:47;;;;;;;2.60;1.00;;;;;;;14.27;82.86;101945.34;5018112;28;20183;-50
2022/09/04 05:10:49;;;;;;;1.48;1.00;;;;;;;14.34;82.47;101939.69;5014212;28;20211;-51
2022/09/04 05:13:21;;;;;;;3.83;1.10;;;;;;;14.28;82.85;101952.47;5018607;28;20422;-49
2022/09/04 05:16:24;;;;;;;3.15;0.88;;;;;;;14.32;82.46;101946.03;5021779;28;20251;-49
2022/09/04 05:19:06;;;;;;;3.10;1.02;;;;;;;14.37;82.19;101952.16;5020004;28;20176;-46
2022/09/04 05:22:02;;;;;;;8.35;1.10;;;;;;;14.35;82.09;101954.03;5015683;28;20189;-47
2022/09/04 05:24:30;;;;;;;1.00;0.82;;;;;;;14.28;82.53;101950.69;5031613;28;20172;-49
2022/09/04 05:27:08;;;;;;;1.73;1.00;;;;;;;14.33;82.45;101962.16;5024542;28;20682;-51
2022/09/04 05:29:46;;;;;;;1.67;0.82;;;;;;;14.39;82.25;101967.34;5013242;28;20180;-48
2022/09/04 05:33:02;;;;;;;5.25;1.10;;;;;;;14.37;82.50;101968.34;5010569;28;20308;-48
2022/09/04 05:35:47;;;;;;;1.45;0.65;;;;;;;14.50;82.47;101974.19;5008794;28;20238;-48
2022/09/04 05:38:37;;;;;;;1.25;1.02;;;;;;;14.46;82.16;101973.41;5013276;28;20193;-50
2022/09/04 05:41:11;;;;;;;0.88;0.70;;;;;;;14.54;81.88;101984.81;5032393;28;20196;-53
2022/09/04 05:43:57;;;;;;;5.15;1.33;;;;;;;14.50;81.73;101991.25;5026985;28;20212;-47
2022/09/04 05:46:31;;;;;;;2.05;1.17;;;;;;;14.70;81.47;101990.53;5014810;28;20213;-54
2022/09/04 05:49:06;;;;;;;1.48;0.85;;;;;;;15.08;80.75;101988.19;5031261;28;20182;-52
2022/09/04 05:51:40;;;;;;;1.75;0.70;;;;;;;15.30;79.84;101990.06;5036731;28;20262;-49
2022/09/04 05:54:35;;;;;;;2.33;0.95;;;;;;;15.38;78.67;101988.81;5032417;28;20179;-48
2022/09/04 05:57:00;;;;;;;1.23;0.80;;;;;;;15.25;78.82;101991.13;5012950;28;20232;-50
2022/09/04 05:59:31;;;;;;;1.63;0.98;;;;;;;15.42;78.49;102003.09;5015851;28;20708;-47
2022/09/04 06:02:25;;;;;;;1.45;0.80;;;;;;;15.46;78.19;101988.53;5025670;28;20204;-48
2022/09/04 06:04:59;;;;;;;2.05;0.88;;;;;;;15.41;77.89;101993.22;5027996;28;20179;-49
2022/09/04 06:07:46;;;;;;;1.42;0.73;;;;;;;15.22;78.37;101985.00;5015518;28;20262;-48
2022/09/04 06:10:23;;;;;;;4.53;0.93;;;;;;;15.12;78.81;101978.19;5021199;28;20187;-51
2022/09/04 06:13:06;;;;;;;2.67;1.17;;;;;;;15.49;78.60;101982.13;5019464;28;20175;-50
2022/09/04 06:15:36;;;;;;;3.45;1.05;;;;;;;15.89;77.20;101989.47;5023784;28;20305;-50
2022/09/04 06:18:24;;;;;;;1.17;0.80;;;;;;;16.34;75.44;101987.59;5012123;28;20235;-51
2022/09/04 06:21:04;;;;;;;1.20;0.90;;;;;;;16.50;74.45;101988.66;5024141;28;20181;-47
2022/09/04 06:24:03;;;;;;;2.92;1.25;;;;;;;16.58;73.70;101997.31;5019744;28;20200;-46
2022/09/04 06:26:44;;;;;;;1.20;1.00;;;;;;;16.86;73.42;101990.69;5027264;28;20600;-48
2022/09/04 06:29:18;;;;;;;2.25;0.98;;;;;;;16.81;71.99;101984.59;5015128;28;20551;-49
2022/09/04 06:32:03;;;;;;;1.50;0.80;;;;;;;16.90;71.43;101989.56;5002203;28;20192;-49
2022/09/04 06:35:10;;;;;;;1.60;1.00;;;;;;;17.15;70.93;101997.44;5023263;28;20201;-48
2022/09/04 06:37:51;;;;;;;1.83;1.08;;;;;;;17.17;70.50;102000.09;4948334;28;20200;-48
2022/09/04 06:40:49;;;;;;;1.30;1.00;;;;;;;17.02;70.73;101999.84;5025454;28;20176;-51
2022/09/04 06:43:21;;;;;;;1.70;0.85;;;;;;;17.04;70.42;101999.78;5014794;28;20256;-47
2022/09/04 06:45:49;;;;;;;9.20;0.93;;;;;;;17.17;70.30;101998.25;5020925;28;20311;-48
2022/09/04 06:48:35;;;;;;;1.60;1.10;;;;;;;17.56;69.97;102000.00;5020545;28;20202;-53
2022/09/04 06:51:33;;;;;;;2.97;1.05;;;;;;;18.00;69.06;101996.94;5019662;28;20184;-47
2022/09/04 06:54:12;;;;;;;1.00;0.90;;;;;;;17.87;68.12;101984.97;5015389;28;20234;-48
2022/09/04 06:57:02;;;;;;;2.65;1.02;;;;;;;18.05;67.93;101996.72;5019428;28;20248;-49
2022/09/04 06:59:40;;;;;;;3.67;1.00;;;;;;;17.94;67.47;101994.53;5015344;28;20188;-50
2022/09/04 07:02:09;;;;;;;2.58;1.08;;;;;;;18.32;67.03;102002.53;5018309;28;20200;-52
2022/09/04 07:04:54;;;;;;;2.72;1.15;;;;;;;18.16;66.01;101999.75;5018904;28;20198;-48
2022/09/04 07:07:25;;;;;;;1.92;0.90;;;;;;;18.16;66.26;102007.88;5016174;28;20699;-53
2022/09/04 07:10:13;;;;;;;2.45;1.20;;;;;;;18.17;66.00;102014.16;5021383;28;20185;-48
2022/09/04 07:13:01;;;;;;;3.53;1.00;;;;;;;18.35;66.11;102015.94;5019252;28;20187;-53
2022/09/04 07:15:32;;;;;;;1.13;1.02;;;;;;;18.71;65.67;102026.69;4980886;28;20262;-48
2022/09/04 07:18:40;;;;;;;3.17;1.00;;;;;;;18.63;64.95;102020.81;5021483;28;20211;-52
2022/09/04 07:21:18;;;;;;;1.35;0.95;;;;;;;19.16;63.99;102028.88;5023287;28;20616;-47
2022/09/04 07:24:01;;;;;;;1.50;0.80;;;;;;;18.68;64.79;102043.16;5025390;28;20207;-49
2022/09/04 07:26:47;;;;;;;2.50;1.10;;;;;;;18.44;64.79;102047.16;5018059;28;20210;-53
2022/09/04 07:29:31;;;;;;;5.45;1.35;;;;;;;18.44;64.44;102034.47;5024328;28;20243;-52
2022/09/04 07:32:04;;;;;;;2.55;0.90;;;;;;;18.67;64.52;102044.13;5014798;28;20180;-51
2022/09/04 07:34:38;;;;;;;2.83;1.15;;;;;;;18.61;65.28;102054.44;5018272;28;20176;-50
2022/09/04 07:37:26;;;;;;;1.65;1.00;;;;;;;18.16;65.62;102044.97;5017867;28;20203;-48
2022/09/04 07:40:22;;;;;;;2.42;1.15;;;;;;;18.23;65.37;102044.56;5015676;28;20180;-49
2022/09/04 07:42:50;;;;;;;2.45;1.13;;;;;;;18.27;65.15;102035.31;5010087;28;20733;-51
2022/09/04 07:45:28;;;;;;;3.13;1.20;;;;;;;18.44;65.21;102036.31;5014412;28;20625;-49
2022/09/04 07:48:27;;;;;;;1.00;0.90;;;;;;;19.14;64.42;102047.97;5015846;28;20191;-52
2022/09/04 07:51:17;;;;;;;2.92;1.10;;;;;;;18.77;64.16;102049.94;5020522;28;20200;-48
2022/09/04 07:54:03;;;;;;;2.35;1.00;;;;;;;18.87;64.29;102044.91;5010765;28;20204;-47
2022/09/04 07:56:44;;;;;;;1.67;0.93;;;;;;;18.99;63.67;102056.97;5027359;28;20725;-50
2022/09/04 07:59:19;;;;;;;3.22;1.00;;;;;;;19.22;62.35;102056.59;5016773;28;20207;-49
2022/09/04 08:01:56;;;;;;;2.92;1.10;;;;;;;19.14;62.60;102064.28;5015074;28;20226;-48
2022/09/04 08:05:01;;;;;;;1.88;1.17;;;;;;;19.42;62.97;102060.91;5016814;28;20557;-48
2022/09/04 08:07:47;;;;;;;2.22;1.15;;;;;;;19.03;62.86;102064.00;5020155;28;20216;-49
2022/09/04 08:10:18;;;;;;;1.20;1.10;;;;;;;18.90;63.30;102063.78;5021139;28;20205;-49
2022/09/04 08:13:04;;;;;;;2.20;1.23;;;;;;;19.24;62.75;102067.34;5020285;28;20652;-49
2022/09/04 08:15:45;;;;;;;1.80;1.40;;;;;;;19.81;61.89;102072.34;5018919;28;20216;-52
2022/09/04 08:18:10;;;;;;;2.88;1.40;;;;;;;20.03;61.08;102078.34;5019235;28;20195;-50
2022/09/04 08:20:50;;;;;;;1.95;0.90;;;;;;;19.34;61.50;102091.22;5011655;28;20559;-48
2022/09/04 08:23:50;;;;;;;3.20;1.13;;;;;;;19.35;61.87;102093.00;5007526;28;20611;-51
2022/09/04 08:26:29;;;;;;;4.40;1.30;;;;;;;19.13;62.30;102092.38;5021354;28;20220;-50
2022/09/04 08:29:31;;;;;;;5.10;1.30;;;;;;;19.19;62.71;102100.22;5016151;28;20674;-51
2022/09/04 08:32:25;;;;;;;2.42;1.48;;;;;;;19.10;62.22;102098.88;5017937;28;20624;-51
2022/09/04 08:35:16;;;;;;;2.90;1.40;;;;;;;19.38;62.35;102088.34;5015215;28;20176;-51
2022/09/04 08:38:11;;;;;;;4.18;1.23;;;;;;;19.58;61.73;102082.69;5031083;28;20196;-49
2022/09/04 08:41:13;;;;;;;4.03;1.33;;;;;;;19.64;61.48;102086.91;5015314;28;20191;-49
2022/09/04 08:44:06;;;;;;;3.60;1.35;;;;;;;19.65;60.32;102089.50;5013950;28;20200;-50
2022/09/04 08:47:06;;;;;;;3.03;1.40;;;;;;;20.24;59.54;102088.91;5010381;28;20219;-51
2022/09/04 08:49:52;;;;;;;1.42;1.33;;;;;;;20.30;59.16;102080.41;5012784;28;20183;-53
2022/09/04 08:52:35;;;;;;;4.03;1.50;;;;;;;20.83;59.05;102086.31;5018420;28;20185;-53
2022/09/04 08:55:03;;;;;;;2.00;1.50;;;;;;;20.47;58.20;102085.72;5013108;28;20595;-46
2022/09/04 08:58:19;;;;;;;2.22;1.67;;;;;;;20.35;58.18;102089.16;5012891;28;20668;-49
2022/09/04 09:00:56;;;;;;;2.17;1.30;;;;;;;20.48;58.52;102082.00;5009937;28;20212;-49
2022/09/04 09:03:51;;;;;;;5.03;1.55;;;;;;;20.73;57.87;102083.28;5025785;28;20200;-50
2022/09/04 09:06:47;;;;;;;2.50;1.52;;;;;;;20.70;58.27;102083.47;5022383;28;20309;-48
2022/09/04 09:09:34;;;;;;;6.07;2.00;;;;;;;20.90;57.51;102083.13;5018748;28;20230;-49
2022/09/04 09:12:33;;;;;;;7.05;1.98;;;;;;;21.19;57.52;102094.94;5015700;28;20627;-47
2022/09/04 09:15:35;;;;;;;3.15;1.95;;;;;;;20.87;57.47;102079.72;5016017;28;20266;-49
2022/09/04 09:18:09;;;;;;;2.15;1.75;;;;;;;21.48;56.57;102077.72;5019270;28;20183;-48
2022/09/04 09:20:51;;;;;;;3.13;1.60;;;;;;;21.55;56.91;102076.34;5023863;28;20662;-50
2022/09/04 09:23:36;;;;;;;2.17;1.70;;;;;;;21.39;56.65;102077.31;5021854;28;20199;-48
2022/09/04 09:26:05;;;;;;;4.20;2.08;;;;;;;21.87;56.25;102087.03;5025062;28;20219;-48
2022/09/04 09:29:07;;;;;;;3.75;2.00;;;;;;;21.85;55.49;102095.28;5022477;28;20191;-50
2022/09/04 09:31:51;;;;;;;4.30;1.90;;;;;;;21.71;54.68;102087.13;5024427;28;20184;-47
2022/09/04 09:34:32;;;;;;;3.88;2.10;;;;;;;21.73;54.66;102086.03;5015745;28;20250;-47
2022/09/04 09:37:12;;;;;;;3.60;2.28;;;;;;;21.75;54.41;102077.78;5020125;28;20693;-54
2022/09/04 09:39:38;;;;;;;2.72;2.35;;;;;;;21.66;54.57;102079.25;5022771;28;20214;-53
2022/09/04 09:42:29;;;;;;;4.70;2.63;;;;;;;21.63;55.32;102087.63;5020018;28;20671;-47
2022/09/04 09:45:14;;;;;;;4.03;2.40;;;;;;;22.05;54.89;102082.19;5019504;28;20192;-51
2022/09/04 09:48:04;;;;;;;3.75;2.53;;;;;;;21.95;54.42;102079.19;5019501;28;20203;-49
2022/09/04 09:50:44;;;;;;;4.72;2.22;;;;;;;22.07;54.24;102080.22;5020998;28;20176;-52
2022/09/04 09:53:28;;;;;;;4.25;2.25;;;;;;;22.09;54.19;102081.00;5009364;28;20728;-50
2022/09/04 09:56:40;;;;;;;5.53;2.08;;;;;;;22.21;53.74;102082.88;5018429;28;20203;-50
2022/09/04 09:59:31;;;;;;;5.38;2.47;;;;;;;22.19;52.99;102080.28;5024634;28;20673;-49
2022/09/04 10:02:19;;;;;;;3.90;2.30;;;;;;;22.17;52.90;102084.06;5013437;28;20219;-54
2022/09/04 10:04:57;;;;;;;2.63;2.15;;;;;;;22.79;53.79;102070.72;5016862;28;20562;-52
2022/09/04 10:07:55;;;;;;;3.05;1.70;;;;;;;22.25;55.26;102084.47;5014576;28;20712;-48
2022/09/04 10:10:44;;;;;;;4.78;2.20;;;;;;;22.40;54.59;102077.09;5005165;28;20262;-48
2022/09/04 10:13:48;;;;;;;2.42;2.05;;;;;;;22.45;53.52;102083.09;5027563;28;20258;-48
2022/09/04 10:16:19;;;;;;;5.13;1.70;;;;;;;22.27;55.02;102084.38;5011324;28;20210;-51
2022/09/04 10:19:22;;;;;;;5.47;2.33;;;;;;;22.44;54.86;102075.91;5012276;28;20180;-48
2022/09/04 10:22:26;;;;;;;3.70;1.63;;;;;;;22.29;55.45;102088.75;5026624;28;20203;-53
2022/09/04 10:25:06;;;;;;;2.05;1.50;;;;;;;22.37;55.66;102082.78;5007953;28;20203;-48
2022/09/04 10:27:50;;;;;;;1.95;1.45;;;;;;;22.39;56.04;102078.06;5013658;28;20277;-51
2022/09/04 10:30:28;;;;;;;3.95;1.52;;;;;;;22.31;55.52;102073.13;5016772;28;20180;-47
2022/09/04 10:32:54;;;;;;;3.38;1.63;;;;;;;22.41;55.33;102071.53;5017845;28;20274;-48
2022/09/04 10:35:53;;;;;;;4.32;1.98;;;;;;;22.40;55.25;102072.50;5017582;28;20191;-48
2022/09/04 10:38:19;;;;;;;3.42;1.90;;;;;;;22.72;54.73;102069.41;5023517;28;20187;-50
2022/09/04 10:41:15;;;;;;;3.78;2.03;;;;;;;22.61;55.23;102074.75;5020894;28;20249;-53
2022/09/04 10:44:14;;;;;;;2.55;2.05;;;;;;;22.49;53.70;102061.94;5027582;28;20636;-54
2022/09/04 10:46:49;;;;;;;5.45;1.90;;;;;;;22.58;53.73;102064.88;5023236;28;20274;-51
2022/09/04 10:50:07;;;;;;;7.22;2.13;;;;;;;22.45;54.14;102064.00;5018479;28;20171;-50
2022/09/04 10:52:39;;;;;;;2.30;1.90;;;;;;;22.21;55.16;102069.25;4986877;28;20545;-48
2022/09/04 10:55:35;;;;;;;3.53;2.08;;;;;;;22.51;54.30;102069.03;5017373;28;20179;-48
2022/09/04 10:58:38;;;;;;;2.78;2.10;;;;;;;22.54;54.77;102070.66;5017616;28;20192;-49
2022/09/04 11:01:41;;;;;;;2.92;2.10;;;;;;;22.54;55.71;102055.19;5010816;28;20366;-55
2022/09/04 11:04:32;;;;;;;3.67;2.15;;;;;;;22.37;55.29;102061.81;5013329;28;20188;-53
2022/09/04 11:06:58;;;;;;;4.25;2.22;;;;;;;22.67;54.25;102071.56;5018226;28;20749;-51
2022/09/04 11:09:57;;;;;;;3.50;2.10;;;;;;;22.53;53.82;102071.66;5018319;28;20271;-53
2022/09/04 11:12:30;;;;;;;2.65;2.20;;;;;;;22.16;54.91;102065.97;5024221;28;20659;-49
2022/09/04 11:15:28;;;;;;;3.90;2.13;;;;;;;22.47;54.10;102070.22;5015852;28;20186;-53
2022/09/04 11:18:21;;;;;;;4.85;2.10;;;;;;;22.41;56.35;102070.63;5021908;28;20175;-49
2022/09/04 11:21:06;;;;;;;3.65;2.10;;;;;;;22.18;56.98;102080.38;5016211;28;20218;-52
2022/09/04 11:24:05;;;;;;;3.35;1.90;;;;;;;21.77;56.10;102078.53;5013063;28;20247;-55
2022/09/04 11:27:00;;;;;;;3.58;2.05;;;;;;;21.38;57.46;102085.56;5015302;28;20196;-49
2022/09/04 11:29:25;;;;;;;3.72;2.40;;;;;;;21.92;55.55;102072.06;5014443;28;20196;-49
2022/09/04 11:31:51;;;;;;;2.00;1.83;;;;;;;21.87;56.42;102076.97;5010969;28;20235;-47
2022/09/04 11:34:19;;;;;;;3.47;2.00;;;;;;;21.96;57.24;102081.81;5006937;28;20247;-50
2022/09/04 11:36:51;;;;;;;4.22;2.03;;;;;;;22.54;55.84;102070.66;5014441;28;20254;-51
2022/09/04 11:39:35;;;;;;;5.78;2.20;;;;;;;22.58;56.18;102075.81;5011427;28;20195;-51
2022/09/04 11:42:39;;;;;;;3.42;1.80;;;;;;;22.63;56.65;102076.41;5015718;28;20274;-55
2022/09/04 11:45:23;;;;;;;2.95;2.13;;;;;;;22.26;56.09;102071.69;4984731;28;20231;-47
2022/09/04 11:48:28;;;;;;;2.25;1.60;;;;;;;22.55;55.72;102092.44;5026749;28;20656;-47
2022/09/04 11:51:08;;;;;;;4.15;1.85;;;;;;;22.24;56.33;102080.00;5013737;28;20199;-49
2022/09/04 11:53:49;;;;;;;5.35;2.28;;;;;;;21.88;56.08;102083.31;5021720;28;20232;-49
2022/09/04 11:56:36;;;;;;;1.95;1.75;;;;;;;22.42;55.32;102065.09;5020393;28;20695;-51
2022/09/04 11:59:55;;;;;;;2.90;1.85;;;;;;;22.94;55.39;102079.69;5018643;28;20226;-51
2022/09/04 12:02:34;;;;;;;3.83;2.17;;;;;;;22.57;53.63;102057.69;4931304;29;20211;-48
2022/09/04 12:05:17;;;;;;;6.03;2.20;;;;;;;22.16;53.47;102076.88;5017163;28;20171;-49
2022/09/04 12:08:27;;;;;;;5.05;2.28;;;;;;;21.71;54.95;102079.84;5015300;28;20267;-49
2022/09/04 12:11:18;;;;;;;2.60;1.92;;;;;;;22.21;53.91;102077.44;5023740;28;20566;-48
2022/09/04 12:14:20;;;;;;;6.28;2.13;;;;;;;22.10;54.03;102066.38;5016541;28;20183;-50
2022/09/04 12:16:46;;;;;;;3.83;2.30;;;;;;;22.11;54.02;102079.06;5017773;28;20203;-47
2022/09/04 12:19:38;;;;;;;3.30;2.40;;;;;;;21.92;54.52;102068.47;5017293;28;20652;-49
2022/09/04 12:22:41;;;;;;;5.38;2.47;;;;;;;21.66;54.54;102078.38;5022059;28;20582;-48
2022/09/04 12:25:28;;;;;;;4.15;2.03;;;;;;;22.00;54.51;102071.56;5020014;28;20198;-49
2022/09/04 12:28:36;;;;;;;3.70;1.90;;;;;;;22.06;53.65;102082.06;5014571;28;20172;-47
2022/09/04 12:31:20;;;;;;;5.03;1.90;;;;;;;22.11;54.11;102087.25;5018336;28;20214;-48
2022/09/04 12:34:17;;;;;;;4.78;2.05;;;;;;;22.21;52.80;102069.25;5017641;28;20176;-48
2022/09/04 12:37:18;;;;;;;2.95;1.80;;;;;;;22.65;52.25;102068.06;5017825;28;20207;-54
2022/09/04 12:40:12;;;;;;;2.38;1.75;;;;;;;22.58;53.03;102073.09;5020540;28;20194;-46
2022/09/04 12:42:46;;;;;;;3.47;1.88;;;;;;;22.55;51.86;102070.56;5018613;28;20286;-49
2022/09/04 12:45:35;;;;;;;4.43;1.65;;;;;;;22.36;51.52;102081.88;5015214;28;20693;-47
2022/09/04 12:48:28;;;;;;;2.50;1.83;;;;;;;22.66;51.97;102069.84;5019156;28;20184;-46